createdAt,value
2018-02-25T00:02:07.498Z,-2.71
2018-02-25T00:04:34.969Z,-2.73
2018-02-25T00:07:02.585Z,-2.79
2018-02-25T00:09:30.034Z,-2.76
2018-02-25T00:11:57.472Z,-2.76
2018-02-25T00:14:25.094Z,-2.82
2018-02-25T00:16:52.533Z,-2.84
2018-02-25T00:19:19.981Z,-2.87
2018-02-25T00:21:47.581Z,-2.96
2018-02-25T00:24:15.330Z,-2.96
2018-02-25T00:26:42.825Z,-2.91
2018-02-25T00:29:10.529Z,-2.92
2018-02-25T00:31:37.984Z,-2.93
2018-02-25T00:34:05.441Z,-2.97
2018-02-25T00:36:33.345Z,-3.03
2018-02-25T00:39:00.785Z,-3.06
2018-02-25T00:41:28.225Z,-3.00
2018-02-25T00:43:55.720Z,-3.02
2018-02-25T00:46:23.166Z,-3.01
2018-02-25T00:48:50.608Z,-3.17
2018-02-25T00:51:18.193Z,-3.11
2018-02-25T00:53:45.641Z,-3.14
2018-02-25T00:56:13.097Z,-3.21
2018-02-25T00:58:40.789Z,-3.20
2018-02-25T01:01:08.233Z,-3.25
2018-02-25T01:03:35.677Z,-3.35
2018-02-25T01:06:03.405Z,-3.39
2018-02-25T01:08:30.844Z,-3.40
2018-02-25T01:10:58.541Z,-3.43
2018-02-25T01:13:26.053Z,-3.43
2018-02-25T01:15:53.514Z,-3.43
2018-02-25T01:18:20.957Z,-3.47
2018-02-25T01:20:48.524Z,-3.47
2018-02-25T01:23:16.037Z,-3.53
2018-02-25T01:25:43.533Z,-3.54
2018-02-25T01:28:11.161Z,-3.58
2018-02-25T01:30:38.638Z,-3.60
2018-02-25T01:33:06.081Z,-3.63
2018-02-25T01:35:33.917Z,-3.66
2018-02-25T01:38:01.369Z,-3.68
2018-02-25T01:40:28.853Z,-3.73
2018-02-25T01:42:56.461Z,-3.71
2018-02-25T01:45:23.916Z,-3.74
2018-02-25T01:47:51.386Z,-3.80
2018-02-25T01:50:19.073Z,-3.82
2018-02-25T01:52:46.521Z,-3.81
2018-02-25T01:55:13.961Z,-3.84
2018-02-25T01:57:41.516Z,-3.85
2018-02-25T02:00:08.978Z,-3.85
2018-02-25T02:02:36.481Z,-3.86
2018-02-25T02:05:03.949Z,-3.92
2018-02-25T02:07:31.394Z,-3.90
2018-02-25T02:09:58.987Z,-3.91
2018-02-25T02:12:26.713Z,-4.02
2018-02-25T02:14:54.173Z,-4.00
2018-02-25T02:17:21.621Z,-4.03
2018-02-25T02:19:49.128Z,-4.04
2018-02-25T02:22:16.769Z,-4.06
2018-02-25T02:24:44.232Z,-4.08
2018-02-25T02:27:11.773Z,-4.14
2018-02-25T02:29:39.215Z,-4.16
2018-02-25T02:32:06.657Z,-4.18
2018-02-25T02:34:34.450Z,-4.16
2018-02-25T02:37:01.915Z,-4.17
2018-02-25T02:39:29.356Z,-4.22
2018-02-25T02:41:56.820Z,-4.20
2018-02-25T02:44:24.261Z,-4.30
2018-02-25T02:46:52.130Z,-4.32
2018-02-25T02:49:19.575Z,-4.28
2018-02-25T02:51:47.022Z,-4.27
2018-02-25T02:54:14.487Z,-4.30
2018-02-25T02:56:41.928Z,-4.28
2018-02-25T02:59:09.885Z,-4.28
2018-02-25T03:01:37.497Z,-4.40
2018-02-25T03:04:04.951Z,-4.49
2018-02-25T03:06:32.416Z,-4.42
2018-02-25T03:09:00.201Z,-4.52
2018-02-25T03:11:27.852Z,-4.53
2018-02-25T03:13:55.302Z,-4.53
2018-02-25T03:16:22.750Z,-4.47
2018-02-25T03:18:50.220Z,-4.53
2018-02-25T03:21:17.670Z,-4.54
2018-02-25T03:23:45.376Z,-4.57
2018-02-25T03:26:12.817Z,-4.55
2018-02-25T03:28:40.265Z,-4.50
2018-02-25T03:31:07.730Z,-4.59
2018-02-25T03:33:35.193Z,-4.62
2018-02-25T03:36:03.029Z,-4.67
2018-02-25T03:38:30.590Z,-4.72
2018-02-25T03:40:58.050Z,-4.67
2018-02-25T03:43:26.334Z,-4.64
2018-02-25T03:45:53.837Z,-4.73
2018-02-25T03:48:21.505Z,-4.82
2018-02-25T03:50:48.955Z,-4.84
2018-02-25T03:53:16.421Z,-4.83
2018-02-25T03:55:44.057Z,-4.81
2018-02-25T03:58:11.506Z,-4.77
2018-02-25T04:00:39.365Z,-4.81
2018-02-25T04:03:06.837Z,-4.82
2018-02-25T04:05:34.284Z,-4.82
2018-02-25T04:08:01.760Z,-4.81
2018-02-25T04:10:29.214Z,-4.79
2018-02-25T04:12:56.845Z,-4.86
2018-02-25T04:15:24.289Z,-4.87
2018-02-25T04:17:51.729Z,-4.89
2018-02-25T04:20:19.213Z,-4.96
2018-02-25T04:22:46.669Z,-4.90
2018-02-25T04:25:14.413Z,-4.95
2018-02-25T04:27:41.853Z,-4.97
2018-02-25T04:30:09.293Z,-5.12
2018-02-25T04:32:36.791Z,-5.15
2018-02-25T04:35:04.241Z,-5.12
2018-02-25T04:37:31.825Z,-5.11
2018-02-25T04:39:59.265Z,-5.09
2018-02-25T04:42:27.945Z,-5.16
2018-02-25T04:44:55.425Z,-5.12
2018-02-25T04:47:22.866Z,-5.06
2018-02-25T04:49:50.345Z,-5.07
2018-02-25T04:52:17.873Z,-5.13
2018-02-25T04:54:45.418Z,-5.14
2018-02-25T04:57:12.909Z,-5.18
2018-02-25T04:59:40.349Z,-5.05
2018-02-25T05:02:07.824Z,-5.12
2018-02-25T05:04:35.299Z,-5.15
2018-02-25T05:07:02.748Z,-5.16
2018-02-25T05:09:30.265Z,-5.19
2018-02-25T05:11:57.709Z,-5.20
2018-02-25T05:14:25.408Z,-5.22
2018-02-25T05:16:52.861Z,-5.25
2018-02-25T05:19:20.305Z,-5.25
2018-02-25T05:21:47.769Z,-5.27
2018-02-25T05:24:15.253Z,-5.30
2018-02-25T05:26:42.737Z,-5.32
2018-02-25T05:29:10.521Z,-5.38
2018-02-25T05:31:37.993Z,-5.36
2018-02-25T05:34:05.452Z,-5.42
2018-02-25T05:36:32.902Z,-5.30
2018-02-25T05:39:00.710Z,-5.34
2018-02-25T05:41:28.332Z,-5.35
2018-02-25T05:43:55.781Z,-5.42
2018-02-25T05:46:23.257Z,-5.49
2018-02-25T05:48:50.697Z,-5.50
2018-02-25T05:51:18.522Z,-5.48
2018-02-25T05:53:45.972Z,-5.38
2018-02-25T05:56:13.436Z,-5.49
2018-02-25T05:58:40.897Z,-5.42
2018-02-25T06:01:08.341Z,-5.36
2018-02-25T06:03:36.021Z,-5.29
2018-02-25T06:06:03.461Z,-5.43
2018-02-25T06:08:30.905Z,-5.38
2018-02-25T06:10:58.372Z,-5.69
2018-02-25T06:13:25.842Z,-5.60
2018-02-25T06:15:53.469Z,-5.75
2018-02-25T06:18:20.932Z,-5.58
2018-02-25T06:20:48.378Z,-5.42
2018-02-25T06:23:15.884Z,-5.42
2018-02-25T06:25:43.344Z,-5.65
2018-02-25T06:28:11.557Z,-5.62
2018-02-25T06:30:39.072Z,-5.42
2018-02-25T06:33:06.525Z,-5.48
2018-02-25T06:35:33.988Z,-5.69
2018-02-25T06:38:01.485Z,-5.75
2018-02-25T06:40:30.140Z,-5.41
2018-02-25T06:42:57.665Z,-5.69
2018-02-25T06:45:25.597Z,-5.60
2018-02-25T06:47:53.120Z,-5.61
2018-02-25T06:50:20.558Z,-5.64
2018-02-25T06:52:48.176Z,-5.67
2018-02-25T06:55:15.622Z,-5.55
2018-02-25T06:57:43.073Z,-5.56
2018-02-25T07:00:10.572Z,-5.45
2018-02-25T07:02:38.017Z,-5.47
2018-02-25T07:05:05.653Z,-5.42
2018-02-25T07:07:33.097Z,-5.34
2018-02-25T07:10:00.547Z,-5.18
2018-02-25T07:12:28.016Z,-5.24
2018-02-25T07:14:55.475Z,-5.15
2018-02-25T07:17:23.180Z,-4.99
2018-02-25T07:19:50.628Z,-5.07
2018-02-25T07:22:18.080Z,-5.05
2018-02-25T07:24:45.565Z,-5.20
2018-02-25T07:27:13.516Z,-5.07
2018-02-25T07:29:41.245Z,-5.09
2018-02-25T07:32:08.710Z,-5.17
2018-02-25T07:34:36.162Z,-5.12
2018-02-25T07:37:03.625Z,-5.00
2018-02-25T07:39:31.144Z,-5.00
2018-02-25T07:41:58.801Z,-5.05
2018-02-25T07:44:26.245Z,-4.97
2018-02-25T07:46:53.722Z,-4.93
2018-02-25T07:49:21.201Z,-4.85
2018-02-25T07:51:48.665Z,-4.69
2018-02-25T07:54:16.146Z,-4.73
2018-02-25T07:56:43.605Z,-4.75
2018-02-25T07:59:11.057Z,-4.72
2018-02-25T08:01:38.533Z,-4.66
2018-02-25T08:04:05.978Z,-4.67
2018-02-25T08:06:33.465Z,-4.56
2018-02-25T08:09:00.909Z,-4.43
2018-02-25T08:11:28.349Z,-4.48
2018-02-25T08:13:55.914Z,-4.47
2018-02-25T08:16:23.437Z,-4.24
2018-02-25T08:18:51.045Z,-4.12
2018-02-25T08:21:18.489Z,-4.02
2018-02-25T08:23:45.933Z,-4.11
2018-02-25T08:26:13.705Z,-4.20
2018-02-25T08:28:41.168Z,-4.06
2018-02-25T08:31:08.638Z,-4.08
2018-02-25T08:33:36.080Z,-4.03
2018-02-25T08:36:03.534Z,-3.96
2018-02-25T08:38:31.014Z,-3.89
2018-02-25T08:40:58.481Z,-3.92
2018-02-25T08:43:26.098Z,-3.97
2018-02-25T08:45:53.560Z,-3.61
2018-02-25T08:48:21.018Z,-3.66
2018-02-25T08:50:48.484Z,-3.79
2018-02-25T08:53:15.929Z,-3.41
2018-02-25T08:55:43.565Z,-3.38
2018-02-25T08:58:11.012Z,-3.50
2018-02-25T09:00:38.471Z,-3.54
2018-02-25T09:03:05.934Z,-3.38
2018-02-25T09:05:33.409Z,-3.19
2018-02-25T09:08:00.879Z,-3.02
2018-02-25T09:10:28.367Z,-3.22
2018-02-25T09:12:56.072Z,-3.04
2018-02-25T09:15:23.536Z,-3.05
2018-02-25T09:17:50.991Z,-3.02
2018-02-25T09:20:18.637Z,-2.97
2018-02-25T09:22:46.062Z,-2.68
2018-02-25T09:25:14.025Z,-2.93
2018-02-25T09:27:41.512Z,-2.86
2018-02-25T09:30:09.673Z,-2.82
2018-02-25T09:32:37.158Z,-2.87
2018-02-25T09:35:04.684Z,-2.85
2018-02-25T09:37:32.147Z,-2.61
2018-02-25T09:39:59.629Z,-2.67
2018-02-25T09:42:27.085Z,-2.46
2018-02-25T09:44:54.561Z,-2.71
2018-02-25T09:47:22.026Z,-2.81
2018-02-25T09:49:49.470Z,-2.62
2018-02-25T09:52:16.934Z,-2.43
2018-02-25T09:54:44.373Z,-2.39
2018-02-25T09:57:11.849Z,-2.20
2018-02-25T09:59:39.290Z,-2.24
2018-02-25T10:02:06.732Z,-2.33
2018-02-25T10:04:34.220Z,-2.53
2018-02-25T10:07:01.709Z,-2.15
2018-02-25T10:09:29.560Z,-2.36
2018-02-25T10:11:57.507Z,-2.29
2018-02-25T10:14:24.963Z,-2.07
2018-02-25T10:16:52.442Z,-2.02
2018-02-25T10:19:19.905Z,-2.17
2018-02-25T10:21:47.589Z,-2.08
2018-02-25T10:24:15.114Z,-1.80
2018-02-25T10:26:42.581Z,-2.04
2018-02-25T10:29:10.045Z,-2.11
2018-02-25T10:31:37.517Z,-2.25
2018-02-25T10:34:04.996Z,-1.80
2018-02-25T10:36:32.445Z,-1.88
2018-02-25T10:38:59.901Z,-1.98
2018-02-25T10:41:27.384Z,-2.09
2018-02-25T10:43:54.834Z,-1.57
2018-02-25T10:46:22.694Z,-1.66
2018-02-25T10:48:50.169Z,-1.36
2018-02-25T10:51:17.653Z,-1.75
2018-02-25T10:53:45.126Z,-1.68
2018-02-25T10:56:12.572Z,-1.41
2018-02-25T10:58:40.553Z,-1.57
2018-02-25T11:01:08.102Z,-1.19
2018-02-25T11:03:35.632Z,-1.56
2018-02-25T11:06:03.100Z,-1.56
2018-02-25T11:08:30.560Z,-1.75
2018-02-25T11:10:58.318Z,-1.43
2018-02-25T11:13:25.781Z,-1.42
2018-02-25T11:15:53.236Z,-1.53
2018-02-25T11:18:20.713Z,-1.43
2018-02-25T11:20:48.258Z,-1.37
2018-02-25T11:23:15.753Z,-1.22
2018-02-25T11:25:43.229Z,-1.09
2018-02-25T11:28:10.677Z,-1.47
2018-02-25T11:30:38.152Z,-1.33
2018-02-25T11:33:05.602Z,-1.32
2018-02-25T11:35:33.085Z,-1.08
2018-02-25T11:38:00.541Z,-1.00
2018-02-25T11:40:27.985Z,-1.31
2018-02-25T11:42:55.453Z,-0.92
2018-02-25T11:45:23.071Z,-0.90
2018-02-25T11:47:50.975Z,-1.03
2018-02-25T11:50:18.433Z,-0.74
2018-02-25T11:52:45.878Z,-0.92
2018-02-25T11:55:13.392Z,-1.00
2018-02-25T11:57:40.833Z,-0.93
2018-02-25T12:00:08.628Z,-0.63
2018-02-25T12:02:36.073Z,-1.07
2018-02-25T12:05:03.522Z,-1.02
2018-02-25T12:07:30.987Z,-0.81
2018-02-25T12:09:58.441Z,-1.04
2018-02-25T12:12:26.194Z,-0.66
2018-02-25T12:14:59.273Z,-0.83
2018-02-25T12:17:21.102Z,-0.87
2018-02-25T12:19:48.602Z,-0.78
2018-02-25T12:22:16.045Z,-0.73
2018-02-25T12:24:43.730Z,-0.91
2018-02-25T12:27:11.169Z,-0.77
2018-02-25T12:29:38.638Z,-0.60
2018-02-25T12:32:06.585Z,-0.67
2018-02-25T12:34:34.049Z,-0.50
2018-02-25T12:37:02.514Z,-0.67
2018-02-25T12:39:29.975Z,-0.51
2018-02-25T12:41:57.445Z,-0.28
2018-02-25T12:44:24.932Z,-0.47
2018-02-25T12:46:52.397Z,-0.27
2018-02-25T12:49:20.029Z,-0.53
2018-02-25T12:51:47.501Z,-0.63
2018-02-25T12:54:14.968Z,-0.31
2018-02-25T12:56:42.446Z,-0.46
2018-02-25T12:59:09.910Z,-0.58
2018-02-25T13:01:37.613Z,-0.36
2018-02-25T13:04:05.058Z,-0.60
2018-02-25T13:06:32.533Z,-0.53
2018-02-25T13:09:00.001Z,-0.38
2018-02-25T13:11:27.449Z,-0.25
2018-02-25T13:13:55.265Z,-0.12
2018-02-25T13:16:22.748Z,-0.10
2018-02-25T13:18:50.241Z,-0.08
2018-02-25T13:21:17.736Z,0.00
2018-02-25T13:23:45.185Z,-0.02
2018-02-25T13:26:12.672Z,0.00
2018-02-25T13:28:40.120Z,0.05
2018-02-25T13:31:08.449Z,-0.03
2018-02-25T13:33:36.022Z,-0.21
2018-02-25T13:36:03.465Z,0.33
2018-02-25T13:38:30.952Z,0.12
2018-02-25T13:40:58.395Z,0.07
2018-02-25T13:43:25.893Z,-0.02
2018-02-25T13:45:53.385Z,0.10
2018-02-25T13:48:20.826Z,0.38
2018-02-25T13:50:48.309Z,-0.06
2018-02-25T13:53:15.799Z,0.16
2018-02-25T13:55:43.237Z,0.23
2018-02-25T13:58:10.715Z,-0.07
2018-02-25T14:00:38.160Z,0.22
2018-02-25T14:03:05.599Z,0.31
2018-02-25T14:05:33.211Z,0.21
2018-02-25T14:08:00.653Z,0.45
2018-02-25T14:10:28.096Z,0.46
2018-02-25T14:12:55.873Z,0.41
2018-02-25T14:15:23.401Z,0.37
2018-02-25T14:17:50.850Z,0.53
2018-02-25T14:20:18.428Z,0.59
2018-02-25T14:22:45.869Z,0.58
2018-02-25T14:25:13.322Z,0.44
2018-02-25T14:27:40.785Z,0.50
2018-02-25T14:30:08.245Z,0.53
2018-02-25T14:32:36.033Z,0.39
2018-02-25T14:35:03.822Z,0.55
2018-02-25T14:37:31.271Z,0.36
2018-02-25T14:39:58.731Z,0.15
2018-02-25T14:42:26.791Z,0.45
2018-02-25T14:44:54.258Z,0.57
2018-02-25T14:47:21.712Z,0.49
2018-02-25T14:49:49.153Z,0.27
2018-02-25T14:52:16.650Z,0.40
2018-02-25T14:54:44.086Z,0.30
2018-02-25T14:57:11.669Z,0.25
2018-02-25T14:59:39.109Z,0.33
2018-02-25T15:02:06.562Z,0.33
2018-02-25T15:04:34.025Z,0.31
2018-02-25T15:07:01.470Z,0.39
2018-02-25T15:09:29.118Z,0.42
2018-02-25T15:11:56.554Z,0.49
2018-02-25T15:14:23.993Z,0.40
2018-02-25T15:16:51.462Z,0.31
2018-02-25T15:19:18.916Z,0.28
2018-02-25T15:21:46.554Z,0.11
2018-02-25T15:24:14.043Z,0.05
2018-02-25T15:26:41.486Z,0.15
2018-02-25T15:29:08.966Z,0.13
2018-02-25T15:31:36.508Z,0.09
2018-02-25T15:34:03.981Z,0.21
2018-02-25T15:36:31.430Z,0.20
2018-02-25T15:38:58.949Z,0.30
2018-02-25T15:41:27.206Z,0.18
2018-02-25T15:43:54.668Z,0.16
2018-02-25T15:46:22.132Z,0.12
2018-02-25T15:48:49.573Z,0.18
2018-02-25T15:51:17.215Z,0.24
2018-02-25T15:53:44.669Z,0.05
2018-02-25T15:56:12.146Z,0.12
2018-02-25T15:58:39.610Z,0.02
2018-02-25T16:01:07.053Z,0.04
2018-02-25T16:03:35.577Z,-0.07
2018-02-25T16:06:03.028Z,-0.20
2018-02-25T16:08:30.479Z,-0.11
2018-02-25T16:10:57.955Z,-0.17
2018-02-25T16:13:25.445Z,-0.17
2018-02-25T16:15:53.061Z,-0.28
2018-02-25T16:18:20.838Z,-0.20
2018-02-25T16:20:48.293Z,-0.37
2018-02-25T16:23:15.753Z,-0.35
2018-02-25T16:25:43.231Z,-0.18
2018-02-25T16:28:10.750Z,-0.27
2018-02-25T16:30:38.273Z,-0.36
2018-02-25T16:33:05.726Z,-0.45
2018-02-25T16:35:33.217Z,-0.43
2018-02-25T16:38:00.665Z,-0.53
2018-02-25T16:40:28.148Z,-0.55
2018-02-25T16:42:55.621Z,-0.60
2018-02-25T16:45:23.061Z,-0.67
2018-02-25T16:47:50.522Z,-0.72
2018-02-25T16:50:17.982Z,-0.75
2018-02-25T16:52:45.842Z,-0.84
2018-02-25T16:55:13.486Z,-0.82
2018-02-25T16:57:40.930Z,-0.92
2018-02-25T17:00:08.396Z,-1.00
2018-02-25T17:02:35.841Z,-1.12
2018-02-25T17:05:03.317Z,-1.11
2018-02-25T17:07:30.766Z,-1.09
2018-02-25T17:09:58.229Z,-1.16
2018-02-25T17:12:25.714Z,-1.31
2018-02-25T17:14:53.217Z,-1.28
2018-02-25T17:17:21.879Z,-1.47
2018-02-25T17:19:49.604Z,-1.41
2018-02-25T17:22:17.054Z,-1.42
2018-02-25T17:24:44.533Z,-1.53
2018-02-25T17:27:12.455Z,-1.51
2018-02-25T17:29:40.225Z,-1.49
2018-02-25T17:32:07.670Z,-1.48
2018-02-25T17:34:35.258Z,-1.36
2018-02-25T17:37:02.742Z,-1.49
2018-02-25T17:39:30.223Z,-1.82
2018-02-25T17:41:57.730Z,-1.83
2018-02-25T17:44:25.200Z,-1.83
2018-02-25T17:46:52.677Z,-1.81
2018-02-25T17:49:20.180Z,-1.83
2018-02-25T17:51:47.643Z,-1.88
2018-02-25T17:54:15.234Z,-1.92
2018-02-25T17:56:42.685Z,-1.85
2018-02-25T17:59:10.133Z,-1.85
2018-02-25T18:01:37.610Z,-1.84
2018-02-25T18:04:05.082Z,-1.86
2018-02-25T18:06:32.989Z,-1.90
2018-02-25T18:09:00.485Z,-1.85
2018-02-25T18:11:27.932Z,-1.95
2018-02-25T18:13:55.681Z,-1.87
2018-02-25T18:16:24.059Z,-1.84
2018-02-25T18:18:51.769Z,-1.77
2018-02-25T18:21:19.209Z,-1.87
2018-02-25T18:23:46.654Z,-1.85
2018-02-25T18:26:14.138Z,-1.87
2018-02-25T18:28:41.598Z,-1.80
2018-02-25T18:31:09.221Z,-1.89
2018-02-25T18:33:36.689Z,-1.91
2018-02-25T18:36:04.141Z,-1.88
2018-02-25T18:38:31.633Z,-1.89
2018-02-25T18:40:59.092Z,-1.95
2018-02-25T18:43:26.583Z,-1.85
2018-02-25T18:45:54.026Z,-1.98
2018-02-25T18:48:21.481Z,-2.02
2018-02-25T18:50:48.941Z,-1.91
2018-02-25T18:53:16.381Z,-1.94
2018-02-25T18:55:44.157Z,-1.92
2018-02-25T18:58:11.609Z,-1.92
2018-02-25T19:00:39.716Z,-1.83
2018-02-25T19:03:07.258Z,-1.86
2018-02-25T19:05:34.702Z,-1.88
2018-02-25T19:08:02.181Z,-1.99
2018-02-25T19:10:29.658Z,-1.99
2018-02-25T19:12:57.189Z,-1.96
2018-02-25T19:15:24.637Z,-2.02
2018-02-25T19:17:52.076Z,-2.06
2018-02-25T19:20:19.540Z,-1.96
2018-02-25T19:22:47.005Z,-2.05
2018-02-25T19:25:14.885Z,-2.11
2018-02-25T19:27:42.342Z,-2.09
2018-02-25T19:30:09.791Z,-2.10
2018-02-25T19:32:37.266Z,-2.07
2018-02-25T19:35:04.742Z,-2.19
2018-02-25T19:37:37.945Z,-2.21
2018-02-25T19:40:05.396Z,-2.16
2018-02-25T19:42:32.883Z,-2.23
2018-02-25T19:45:00.325Z,-2.18
2018-02-25T19:47:27.914Z,-2.32
2018-02-25T19:49:55.360Z,-2.33
2018-02-25T19:52:22.801Z,-2.38
2018-02-25T19:54:50.274Z,-2.40
2018-02-25T19:57:17.725Z,-2.33
2018-02-25T19:59:45.201Z,-2.39
2018-02-25T20:02:12.675Z,-2.38
2018-02-25T20:04:40.129Z,-2.38
2018-02-25T20:07:07.594Z,-2.47
2018-02-25T20:09:36.585Z,-2.45
2018-02-25T20:12:04.072Z,-2.49
2018-02-25T20:14:31.540Z,-2.44
2018-02-25T20:16:58.986Z,-2.50
2018-02-25T20:19:26.480Z,-2.54
2018-02-25T20:21:53.924Z,-2.58
2018-02-25T20:24:21.476Z,-2.62
2018-02-25T20:26:48.893Z,-2.52
2018-02-25T20:29:16.341Z,-2.51
2018-02-25T20:31:43.848Z,-2.71
2018-02-25T20:34:11.381Z,-2.77
2018-02-25T20:36:39.100Z,-2.74
2018-02-25T20:39:06.554Z,-2.77
2018-02-25T20:41:34.943Z,-2.77
2018-02-25T20:44:02.408Z,-2.78
2018-02-25T20:46:30.137Z,-2.77
2018-02-25T20:48:57.768Z,-2.79
2018-02-25T20:51:25.222Z,-2.80
2018-02-25T20:53:52.731Z,-2.80
2018-02-25T20:56:20.149Z,-2.80
2018-02-25T20:58:47.606Z,-2.75
2018-02-25T21:01:15.253Z,-2.82
2018-02-25T21:03:42.715Z,-2.87
2018-02-25T21:06:10.161Z,-2.83
2018-02-25T21:08:37.638Z,-2.90
2018-02-25T21:11:05.081Z,-2.76
2018-02-25T21:13:32.664Z,-2.78
2018-02-25T21:16:00.118Z,-2.88
2018-02-25T21:18:27.561Z,-2.82
2018-02-25T21:20:55.029Z,-2.92
2018-02-25T21:23:22.473Z,-2.80
2018-02-25T21:25:50.096Z,-2.90
2018-02-25T21:28:17.546Z,-2.95
2018-02-25T21:30:45.036Z,-2.91
2018-02-25T21:33:12.815Z,-2.81
2018-02-25T21:35:40.369Z,-2.85
2018-02-25T21:38:08.081Z,-3.00
2018-02-25T21:40:35.586Z,-3.01
2018-02-25T21:43:03.034Z,-2.95
2018-02-25T21:45:31.379Z,-2.96
2018-02-25T21:47:58.839Z,-3.00
2018-02-25T21:50:26.564Z,-3.05
2018-02-25T21:52:54.011Z,-3.05
2018-02-25T21:55:21.466Z,-2.99
2018-02-25T21:57:54.477Z,-3.07
2018-02-25T22:03:32.565Z,-3.19
2018-02-25T22:06:00.018Z,-3.21
2018-02-25T22:08:27.461Z,-3.20
2018-02-25T22:10:54.942Z,-3.21
2018-02-25T22:13:22.385Z,-3.27
2018-02-25T22:15:49.833Z,-3.21
2018-02-25T22:18:17.293Z,-3.29
2018-02-25T22:20:44.728Z,-3.33
2018-02-25T22:23:12.169Z,-3.34
2018-02-25T22:25:39.777Z,-3.34
2018-02-25T22:28:07.221Z,-3.47
2018-02-25T22:30:34.667Z,-3.39
2018-02-25T22:33:02.407Z,-3.48
2018-02-25T22:35:29.849Z,-3.40
2018-02-25T22:37:57.289Z,-3.55
2018-02-25T22:40:25.893Z,-3.48
2018-02-25T22:42:53.361Z,-3.62
2018-02-25T22:45:21.053Z,-3.66
2018-02-25T22:47:48.536Z,-3.62
2018-02-25T22:50:16.188Z,-3.62
2018-02-25T22:52:43.630Z,-3.63
2018-02-25T22:55:11.105Z,-3.73
2018-02-25T22:57:38.554Z,-3.74
2018-02-25T23:00:06.005Z,-3.78
2018-02-25T23:02:33.865Z,-3.80
2018-02-25T23:05:01.395Z,-3.75
2018-02-25T23:07:28.845Z,-3.90
2018-02-25T23:09:56.332Z,-3.84
2018-02-25T23:12:23.776Z,-3.89
2018-02-25T23:14:51.546Z,-3.87
2018-02-25T23:17:19.015Z,-3.86
2018-02-25T23:19:46.457Z,-3.91
2018-02-25T23:22:13.918Z,-3.93
2018-02-25T23:24:41.362Z,-3.89
2018-02-25T23:27:09.173Z,-3.96
2018-02-25T23:29:36.625Z,-3.95
2018-02-25T23:32:04.081Z,-3.92
2018-02-25T23:34:31.563Z,-3.99
2018-02-25T23:36:59.009Z,-3.94
2018-02-25T23:39:26.645Z,-4.02
2018-02-25T23:41:54.097Z,-3.99
2018-02-25T23:44:21.548Z,-3.97
2018-02-25T23:46:49.017Z,-3.95
2018-02-25T23:49:16.463Z,-3.97
2018-02-25T23:51:43.946Z,-4.01
2018-02-25T23:54:11.390Z,-4.03
2018-02-25T23:56:38.834Z,-3.99
2018-02-25T23:59:06.301Z,-4.03
